ENTO/TRF METAR and TAF weather

Enter ICAO airport designator
Station Type Date Time Source
ENTO METAR 2020/02/19 11:20 UTC NOAA

ENTO 191120Z 31007KT CAVOK 06/M03 Q1000 NOSIG


Station Type Date Time Source
ENTO Decoded METAR 2020/02/19 11:20 UTC NOAA

Torp, Norway (ENTO) 59-12N 010-16E 88M
Feb 19, 2020 - 06:20 AM EST / 2020.02.19 1120 UTC
Wind: from the NW (310 degrees) at 8 MPH (7 KT):0
Visibility: greater than 7 mile(s):0
Temperature: 42 F (6 C)
Dew Point: 26 F (-3 C)
Relative Humidity: 52%
Pressure (altimeter): 29.53 in. Hg (1000 hPa)
ob: ENTO 191120Z 31007KT CAVOK 06/M03 Q1000 NOSIG
cycle: 11

Station Type Date Time Source
ENTO TAF 2020/02/19 06:57 UTC NOAA

TAF ENTO 190500Z 1906/2006 29008KT CAVOK
BECMG 2000/2002 20010KT
TEMPO 2003/2006 BKN010

Example: see airport list